Time;durP1;ratioP1;P1;durP2;ratioP2;P2;SDS_P1;SDS_P2;PMS_P1;PMS_P2;Temp;Humidity;BMP_temperature;BMP_pressure;BME280_temperature;BME280_humidity;BME280_pressure;Samples;Min_cycle;Max_cycle;Signal;HPM_P1;HPM_P2
2023/04/09 00:02:13;;;;;;;27.87;22.57;;;4.70;68.20;;;;;;6279618;28;20245;-80
2023/04/09 00:05:16;;;;;;;28.73;23.60;;;4.70;68.20;;;;;;6296062;28;20236;-83
2023/04/09 00:08:19;;;;;;;25.23;22.00;;;4.70;68.30;;;;;;6303227;28;20228;-84
2023/04/09 00:11:23;;;;;;;29.77;25.17;;;4.70;68.30;;;;;;6281649;28;20326;-82
2023/04/09 00:14:27;;;;;;;29.53;24.57;;;4.60;68.40;;;;;;6301568;28;20331;-85
2023/04/09 00:17:31;;;;;;;29.30;24.60;;;4.60;68.50;;;;;;6298569;28;20256;-83
2023/04/09 00:20:34;;;;;;;29.10;23.63;;;4.50;68.60;;;;;;6291634;28;20736;-84
2023/04/09 00:23:38;;;;;;;30.90;25.00;;;4.50;68.60;;;;;;6297284;28;20237;-83
2023/04/09 00:26:41;;;;;;;27.03;23.30;;;4.50;68.70;;;;;;6292268;28;20237;-83
2023/04/09 00:29:46;;;;;;;34.53;27.30;;;4.50;68.80;;;;;;6296212;28;20379;-84
2023/04/09 00:32:49;;;;;;;30.30;25.60;;;4.50;69.00;;;;;;6291885;28;20225;-81
2023/04/09 00:35:53;;;;;;;32.63;25.43;;;4.50;69.00;;;;;;6291222;28;20342;-82
2023/04/09 00:38:57;;;;;;;32.97;25.40;;;4.50;69.10;;;;;;6302827;28;20229;-83
2023/04/09 00:42:02;;;;;;;33.93;26.23;;;4.50;69.20;;;;;;6306541;28;20484;-84
2023/04/09 00:45:08;;;;;;;35.10;27.13;;;4.40;69.40;;;;;;6299516;28;20675;-84
2023/04/09 00:48:12;;;;;;;37.00;28.50;;;4.40;69.60;;;;;;6290654;28;20342;-85
2023/04/09 00:51:15;;;;;;;39.37;29.17;;;4.40;69.70;;;;;;6299695;28;20224;-78
2023/04/09 00:54:19;;;;;;;35.53;27.33;;;4.40;69.80;;;;;;6329758;28;20283;-79
2023/04/09 00:57:22;;;;;;;37.93;28.53;;;4.30;69.90;;;;;;6323996;28;20241;-77
2023/04/09 01:00:30;;;;;;;41.70;30.77;;;4.30;69.90;;;;;;6320041;28;20290;-79
2023/04/09 01:03:33;;;;;;;39.63;30.50;;;4.20;70.10;;;;;;6319311;28;20281;-78
2023/04/09 01:06:42;;;;;;;48.30;34.67;;;4.20;70.20;;;;;;6309601;28;20218;-80
2023/04/09 01:09:54;;;;;;;39.57;31.57;;;4.20;70.20;;;;;;6338777;28;21444;-80
2023/04/09 01:13:07;;;;;;;42.17;31.70;;;4.20;70.40;;;;;;6318132;28;20248;-78
2023/04/09 01:16:13;;;;;;;43.90;31.73;;;4.20;70.40;;;;;;6325325;28;20220;-80
2023/04/09 01:19:34;;;;;;;38.23;28.30;;;4.10;70.50;;;;;;6331003;28;20221;-80
2023/04/09 01:22:49;;;;;;;35.87;27.00;;;4.10;70.60;;;;;;6301745;28;20386;-78
2023/04/09 01:26:03;;;;;;;35.27;26.23;;;4.10;70.70;;;;;;6316291;28;20225;-80
2023/04/09 01:29:09;;;;;;;36.37;26.97;;;4.10;70.60;;;;;;6330036;28;20228;-78
2023/04/09 01:32:13;;;;;;;32.30;24.93;;;4.00;70.70;;;;;;6332986;28;20245;-80
2023/04/09 01:35:17;;;;;;;30.57;26.00;;;4.00;70.70;;;;;;6321493;28;20214;-78
2023/04/09 01:38:22;;;;;;;36.17;26.70;;;4.00;70.70;;;;;;6319449;28;20220;-79
2023/04/09 01:41:29;;;;;;;35.43;25.23;;;4.00;70.80;;;;;;6335201;28;20228;-80
2023/04/09 01:44:35;;;;;;;33.00;25.80;;;4.00;70.90;;;;;;6309093;28;20214;-78
2023/04/09 01:47:39;;;;;;;28.17;23.43;;;3.90;71.00;;;;;;6321658;28;20267;-79
2023/04/09 01:50:43;;;;;;;35.53;26.70;;;4.00;71.00;;;;;;6335051;28;20236;-78
2023/04/09 01:53:47;;;;;;;35.23;26.37;;;3.90;71.00;;;;;;6313323;27;20424;-80
2023/04/09 01:56:50;;;;;;;31.47;25.23;;;3.90;71.00;;;;;;6314523;28;20236;-80
2023/04/09 01:59:55;;;;;;;30.87;24.23;;;3.90;71.00;;;;;;6327277;28;20324;-82
2023/04/09 02:03:06;;;;;;;30.17;25.30;;;3.90;71.10;;;;;;6306261;28;20241;-78
2023/04/09 02:06:15;;;;;;;31.17;24.93;;;3.90;71.10;;;;;;6319319;28;20302;-84
2023/04/09 02:09:21;;;;;;;30.53;24.30;;;3.80;71.10;;;;;;6298379;28;20338;-84
2023/04/09 02:12:25;;;;;;;31.90;25.17;;;3.80;71.20;;;;;;6289134;28;20607;-84
2023/04/09 02:15:33;;;;;;;29.67;24.43;;;3.80;71.20;;;;;;6290959;28;20966;-83
2023/04/09 02:18:38;;;;;;;32.37;25.17;;;3.70;71.20;;;;;;6292386;28;20364;-86
2023/04/09 02:21:41;;;;;;;29.40;24.50;;;3.70;71.20;;;;;;6295011;28;20733;-84
2023/04/09 02:24:46;;;;;;;29.60;25.60;;;3.70;71.40;;;;;;6317804;28;20221;-81
2023/04/09 02:27:49;;;;;;;28.27;23.17;;;3.60;71.40;;;;;;6327466;28;20232;-80
2023/04/09 02:30:53;;;;;;;35.13;25.80;;;3.60;71.50;;;;;;6328445;28;20229;-79
2023/04/09 02:33:57;;;;;;;30.07;25.13;;;3.60;71.50;;;;;;6308007;28;20244;-79
2023/04/09 02:37:00;;;;;;;31.87;25.63;;;3.60;71.60;;;;;;6320010;28;20209;-79
2023/04/09 02:40:04;;;;;;;32.53;25.67;;;3.50;71.60;;;;;;6330870;28;20213;-79
2023/04/09 02:43:07;;;;;;;33.93;25.93;;;3.60;71.70;;;;;;6310652;28;20217;-83
2023/04/09 02:46:12;;;;;;;31.20;24.27;;;3.50;71.80;;;;;;6303324;28;20264;-84
2023/04/09 02:49:15;;;;;;;28.57;24.03;;;3.50;71.80;;;;;;6299238;28;20705;-83
2023/04/09 02:52:23;;;;;;;30.43;23.97;;;3.50;71.90;;;;;;6295867;28;20721;-83
2023/04/09 02:55:26;;;;;;;37.43;27.77;;;3.50;72.00;;;;;;6296707;28;20312;-84
2023/04/09 02:58:29;;;;;;;33.03;25.77;;;3.50;72.10;;;;;;6290458;28;20338;-83
2023/04/09 03:01:37;;;;;;;36.13;25.93;;;3.50;72.20;;;;;;6274316;28;20271;-80
2023/04/09 03:04:40;;;;;;;32.97;26.30;;;3.50;72.20;;;;;;6296042;28;20237;-85
2023/04/09 03:07:44;;;;;;;32.33;25.93;;;3.50;72.30;;;;;;6296220;28;20228;-82
2023/04/09 03:10:47;;;;;;;32.13;24.83;;;3.40;72.30;;;;;;6303836;28;20296;-80
2023/04/09 03:13:50;;;;;;;31.87;24.67;;;3.40;72.40;;;;;;6329975;28;20242;-80
2023/04/09 03:16:54;;;;;;;32.37;25.33;;;3.40;72.40;;;;;;6328539;28;20946;-79
2023/04/09 03:19:58;;;;;;;31.50;26.57;;;3.30;72.50;;;;;;6325623;28;20396;-81
2023/04/09 03:23:01;;;;;;;30.63;24.83;;;3.30;72.50;;;;;;6317667;28;20205;-79
2023/04/09 03:26:05;;;;;;;33.47;26.07;;;3.30;72.50;;;;;;6332093;28;20256;-79
2023/04/09 03:29:09;;;;;;;33.17;26.13;;;3.30;72.50;;;;;;6306943;28;20275;-86
2023/04/09 03:32:13;;;;;;;30.90;25.43;;;3.30;72.50;;;;;;6273872;28;20780;-83
2023/04/09 03:35:19;;;;;;;38.83;28.20;;;3.30;72.50;;;;;;6288497;28;20527;-84
2023/04/09 03:38:23;;;;;;;39.00;29.13;;;3.30;72.60;;;;;;6289348;28;20383;-82
2023/04/09 03:41:26;;;;;;;34.87;27.00;;;3.30;72.90;;;;;;6292306;28;20247;-82
2023/04/09 03:44:29;;;;;;;39.97;30.03;;;3.30;72.90;;;;;;6311752;28;20474;-80
2023/04/09 03:47:36;;;;;;;40.30;29.67;;;3.30;73.00;;;;;;6314819;28;20242;-79
2023/04/09 03:50:40;;;;;;;46.73;32.87;;;3.40;73.20;;;;;;6310199;28;20233;-80
2023/04/09 03:53:43;;;;;;;47.80;33.70;;;3.50;73.90;;;;;;6306818;28;20252;-79
2023/04/09 03:56:46;;;;;;;44.10;33.53;;;3.60;74.70;;;;;;6290079;28;20243;-80
2023/04/09 03:59:52;;;;;;;44.53;30.90;;;3.60;74.90;;;;;;6294112;28;20232;-77
2023/04/09 04:02:56;;;;;;;43.47;30.60;;;3.60;74.80;;;;;;6280166;28;20237;-80
2023/04/09 04:06:04;;;;;;;41.17;30.30;;;3.60;75.00;;;;;;6285503;28;20224;-80
2023/04/09 04:09:07;;;;;;;41.83;28.73;;;3.60;75.10;;;;;;6282467;28;20602;-80
2023/04/09 04:12:10;;;;;;;45.93;32.93;;;3.60;75.20;;;;;;6293618;28;20229;-81
2023/04/09 04:15:13;;;;;;;43.73;30.87;;;3.50;75.50;;;;;;6283618;28;20236;-81
2023/04/09 04:18:18;;;;;;;36.50;29.97;;;3.50;75.70;;;;;;6284030;28;20244;-81
2023/04/09 04:21:21;;;;;;;40.93;31.43;;;3.50;75.60;;;;;;6285010;28;20233;-77
2023/04/09 04:24:24;;;;;;;43.43;31.47;;;3.50;75.80;;;;;;6285592;28;20253;-77
2023/04/09 04:27:27;;;;;;;39.63;29.60;;;3.30;75.90;;;;;;6299153;28;20735;-80
2023/04/09 04:30:30;;;;;;;40.90;30.27;;;3.30;76.20;;;;;;6283623;28;20248;-81
2023/04/09 04:33:35;;;;;;;42.87;31.43;;;3.30;76.40;;;;;;6276598;28;20290;-78
2023/04/09 04:36:40;;;;;;;45.30;30.87;;;3.30;76.50;;;;;;6283639;28;20839;-76
2023/04/09 04:39:43;;;;;;;41.97;31.33;;;3.30;76.70;;;;;;6280671;28;20240;-81
2023/04/09 04:42:46;;;;;;;44.37;31.87;;;3.30;77.00;;;;;;6283014;28;20708;-80
2023/04/09 04:45:49;;;;;;;42.87;30.00;;;3.30;77.40;;;;;;6285331;28;20743;-79
2023/04/09 04:48:56;;;;;;;41.73;30.10;;;3.30;77.50;;;;;;6286960;28;20233;-79
2023/04/09 04:52:00;;;;;;;44.53;31.43;;;3.30;77.90;;;;;;6282832;28;20245;-80
2023/04/09 04:55:03;;;;;;;43.07;31.77;;;3.30;78.40;;;;;;6285840;28;20449;-79
2023/04/09 04:58:06;;;;;;;39.73;29.90;;;3.50;78.30;;;;;;6292901;28;20229;-80
2023/04/09 05:01:09;;;;;;;46.93;31.73;;;3.50;78.30;;;;;;6265343;28;20460;-79
2023/04/09 05:04:13;;;;;;;47.67;31.47;;;3.60;78.50;;;;;;6285982;28;20305;-81
2023/04/09 05:07:16;;;;;;;46.03;32.50;;;3.70;78.40;;;;;;6295903;28;20549;-80
2023/04/09 05:10:20;;;;;;;41.93;29.90;;;3.70;78.50;;;;;;6281853;28;20694;-80
2023/04/09 05:13:23;;;;;;;39.90;29.90;;;3.90;78.60;;;;;;6298765;28;20321;-80
2023/04/09 05:16:27;;;;;;;46.47;33.17;;;3.90;78.60;;;;;;6294816;28;20259;-81
2023/04/09 05:19:31;;;;;;;46.67;30.30;;;4.00;78.60;;;;;;6286565;28;20247;-82
2023/04/09 05:22:35;;;;;;;38.90;28.17;;;4.00;78.70;;;;;;6289470;28;20241;-81
2023/04/09 05:25:38;;;;;;;43.60;30.77;;;4.10;78.70;;;;;;6288770;28;20241;-82
2023/04/09 05:28:41;;;;;;;44.70;30.57;;;4.20;78.60;;;;;;6288366;28;20240;-77
2023/04/09 05:31:44;;;;;;;37.03;26.20;;;4.20;78.70;;;;;;6285029;28;20249;-79
2023/04/09 05:34:49;;;;;;;34.17;26.20;;;4.30;78.60;;;;;;6284468;28;20237;-79
2023/04/09 05:37:52;;;;;;;37.93;27.27;;;4.40;78.60;;;;;;6286140;28;20229;-79
2023/04/09 05:40:55;;;;;;;42.00;30.10;;;4.40;78.60;;;;;;6286817;28;20237;-80
2023/04/09 05:43:58;;;;;;;38.67;28.27;;;4.50;78.60;;;;;;6287272;28;20245;-80
2023/04/09 05:47:02;;;;;;;40.67;29.33;;;4.50;78.70;;;;;;6292201;28;20998;-80
2023/04/09 05:50:08;;;;;;;44.30;31.20;;;4.50;78.60;;;;;;6297918;28;20225;-80
2023/04/09 05:53:11;;;;;;;47.83;31.60;;;4.70;78.70;;;;;;6294184;28;20271;-80
2023/04/09 05:56:15;;;;;;;45.03;30.63;;;4.60;78.30;;;;;;6287476;28;20703;-80
2023/04/09 05:59:18;;;;;;;40.73;28.93;;;4.60;78.50;;;;;;6296728;28;20728;-80
2023/04/09 06:02:21;;;;;;;50.00;33.60;;;4.70;78.40;;;;;;6283418;28;20240;-78
2023/04/09 06:05:27;;;;;;;44.60;30.60;;;4.70;78.50;;;;;;6288012;28;20236;-80
2023/04/09 06:08:30;;;;;;;45.10;31.77;;;4.70;78.70;;;;;;6287469;28;20241;-80
2023/04/09 06:11:33;;;;;;;41.17;28.97;;;4.70;78.70;;;;;;6286790;28;20241;-80
2023/04/09 06:14:36;;;;;;;46.37;31.30;;;4.90;78.90;;;;;;6321246;28;20599;-77
2023/04/09 06:17:39;;;;;;;43.23;30.40;;;5.00;78.80;;;;;;6294595;28;20238;-81
2023/04/09 06:20:44;;;;;;;47.93;32.60;;;5.10;78.70;;;;;;6294070;28;20245;-79
2023/04/09 06:23:47;;;;;;;38.83;28.83;;;5.30;78.50;;;;;;6289988;28;20322;-80
2023/04/09 06:26:50;;;;;;;46.87;33.93;;;5.30;77.70;;;;;;6287186;28;20237;-80
2023/04/09 06:29:53;;;;;;;48.70;34.57;;;5.30;77.10;;;;;;6296588;28;20479;-80
2023/04/09 06:32:56;;;;;;;50.27;34.83;;;5.30;76.50;;;;;;6287597;28;20240;-80
2023/04/09 06:36:01;;;;;;;46.73;31.70;;;5.30;76.20;;;;;;6283930;28;20391;-79
2023/04/09 06:39:04;;;;;;;44.73;31.83;;;5.30;75.70;;;;;;6289741;28;20237;-80
2023/04/09 06:42:07;;;;;;;40.33;29.73;;;5.40;76.00;;;;;;6288727;28;20782;-79
2023/04/09 06:45:11;;;;;;;46.70;33.60;;;5.50;75.70;;;;;;6295612;28;21618;-80
2023/04/09 06:48:14;;;;;;;43.67;31.67;;;5.60;75.20;;;;;;6287320;28;20752;-82
2023/04/09 06:51:18;;;;;;;47.57;32.57;;;5.60;75.10;;;;;;6285765;28;20248;-81
2023/04/09 06:54:22;;;;;;;40.03;29.87;;;5.70;75.40;;;;;;6292437;28;20233;-80
2023/04/09 06:57:26;;;;;;;42.90;31.70;;;5.90;74.90;;;;;;6289681;28;20318;-79
2023/04/09 07:00:29;;;;;;;42.23;31.47;;;6.00;74.50;;;;;;6284505;28;20248;-80
2023/04/09 07:03:32;;;;;;;39.63;30.90;;;6.10;74.10;;;;;;6286302;28;20275;-79
2023/04/09 07:06:37;;;;;;;45.17;33.17;;;6.20;74.10;;;;;;6302723;28;20249;-78
2023/04/09 07:09:40;;;;;;;42.50;31.17;;;6.20;73.20;;;;;;6295123;28;20253;-78
2023/04/09 07:12:44;;;;;;;43.33;31.70;;;6.30;73.50;;;;;;6290498;28;20237;-80
2023/04/09 07:15:47;;;;;;;42.33;31.17;;;6.50;73.20;;;;;;6295837;28;20243;-74
2023/04/09 07:18:50;;;;;;;40.50;32.17;;;6.60;73.00;;;;;;6285896;28;20786;-80
2023/04/09 07:21:55;;;;;;;41.80;31.63;;;6.70;72.10;;;;;;6296286;27;20230;-81
2023/04/09 07:24:58;;;;;;;38.80;30.67;;;6.90;72.10;;;;;;6283686;28;20234;-81
2023/04/09 07:28:01;;;;;;;39.53;31.57;;;7.00;71.30;;;;;;6288825;28;20245;-79
2023/04/09 07:31:05;;;;;;;37.23;28.60;;;6.90;71.20;;;;;;6285159;28;20271;-80
2023/04/09 07:34:08;;;;;;;36.77;28.27;;;7.00;71.20;;;;;;6289639;28;20709;-79
2023/04/09 07:37:12;;;;;;;36.70;27.77;;;7.00;71.60;;;;;;6289686;28;20419;-79
2023/04/09 07:40:15;;;;;;;34.83;28.30;;;7.00;71.60;;;;;;6284978;28;20362;-80
2023/04/09 07:43:18;;;;;;;33.23;27.77;;;7.10;71.10;;;;;;6286569;28;20220;-79
2023/04/09 07:46:24;;;;;;;37.93;28.43;;;7.00;70.80;;;;;;6287014;28;20245;-78
2023/04/09 07:49:28;;;;;;;38.90;28.83;;;7.00;71.40;;;;;;6286745;28;20241;-78
2023/04/09 07:52:32;;;;;;;34.97;28.13;;;7.00;71.40;;;;;;6285391;28;20253;-78
2023/04/09 07:55:36;;;;;;;35.63;28.60;;;7.00;70.90;;;;;;6284064;28;20252;-80
2023/04/09 07:58:39;;;;;;;35.43;28.97;;;7.10;71.10;;;;;;6290879;28;20556;-80
2023/04/09 08:01:42;;;;;;;36.40;28.90;;;7.20;71.00;;;;;;6281894;28;20240;-81
2023/04/09 08:04:45;;;;;;;36.93;28.63;;;7.20;71.20;;;;;;6276462;28;20483;-78
2023/04/09 08:07:51;;;;;;;39.37;29.00;;;7.20;71.00;;;;;;6283325;28;20704;-82
2023/04/09 08:10:54;;;;;;;36.47;28.80;;;7.50;70.60;;;;;;6278767;28;20245;-80
2023/04/09 08:14:00;;;;;;;36.40;28.47;;;7.60;70.00;;;;;;6285940;28;20243;-80
2023/04/09 08:17:03;;;;;;;38.50;28.27;;;7.60;70.30;;;;;;6285371;28;20245;-80
2023/04/09 08:20:07;;;;;;;37.50;29.70;;;7.70;69.90;;;;;;6282547;28;20240;-80
2023/04/09 08:23:12;;;;;;;35.03;28.23;;;7.60;69.90;;;;;;6288977;28;20234;-80
2023/04/09 08:26:15;;;;;;;34.37;28.40;;;7.70;69.80;;;;;;6291269;28;20228;-81
2023/04/09 08:29:18;;;;;;;36.33;29.60;;;7.60;69.90;;;;;;6299037;28;20597;-79
2023/04/09 08:32:21;;;;;;;35.37;28.57;;;7.70;69.90;;;;;;6286376;28;20623;-80
2023/04/09 08:35:24;;;;;;;34.77;28.77;;;7.80;69.20;;;;;;6284466;28;20229;-80
2023/04/09 08:38:29;;;;;;;36.70;29.50;;;7.70;69.60;;;;;;6290833;28;20230;-80
2023/04/09 08:41:32;;;;;;;40.40;32.10;;;7.70;69.20;;;;;;6290798;28;20237;-80
2023/04/09 08:44:35;;;;;;;43.03;31.70;;;7.80;68.90;;;;;;6288550;28;20256;-80
2023/04/09 08:47:41;;;;;;;36.07;29.13;;;7.80;68.40;;;;;;6296424;28;20483;-82
2023/04/09 08:50:46;;;;;;;34.97;29.13;;;7.70;69.30;;;;;;6301199;28;20239;-80
2023/04/09 08:53:56;;;;;;;36.77;30.07;;;8.00;69.00;;;;;;6289989;28;20253;-81
2023/04/09 08:56:59;;;;;;;40.47;30.67;;;8.10;68.70;;;;;;6284612;28;20265;-80
2023/04/09 09:00:02;;;;;;;37.60;30.87;;;8.40;68.00;;;;;;6289760;28;20725;-78
2023/04/09 09:03:07;;;;;;;36.57;28.57;;;8.30;68.20;;;;;;6288912;28;20237;-78
2023/04/09 09:06:22;;;;;;;37.13;28.73;;;8.40;69.00;;;;;;6281949;28;20289;-78
2023/04/09 09:09:26;;;;;;;35.77;29.40;;;8.90;68.40;;;;;;6287516;28;20447;-82
2023/04/09 09:12:34;;;;;;;35.83;28.83;;;9.40;66.20;;;;;;6295647;28;20316;-80
2023/04/09 09:15:37;;;;;;;37.83;30.23;;;9.60;65.00;;;;;;6287541;28;20234;-78
2023/04/09 09:18:41;;;;;;;38.30;29.90;;;9.50;65.10;;;;;;6288989;28;20229;-80
2023/04/09 09:21:55;;;;;;;39.63;30.37;;;9.50;65.40;;;;;;6280219;28;20697;-79
2023/04/09 09:25:00;;;;;;;36.77;30.47;;;9.50;65.30;;;;;;6279029;28;20233;-82
2023/04/09 09:28:08;;;;;;;36.83;29.67;;;9.20;65.70;;;;;;6298861;28;20409;-82
2023/04/09 09:31:12;;;;;;;36.57;28.37;;;9.20;65.90;;;;;;6291365;28;20329;-81
2023/04/09 09:34:16;;;;;;;35.47;29.87;;;9.40;65.90;;;;;;6288108;28;20308;-81
2023/04/09 09:37:26;;;;;;;37.33;28.93;;;9.70;65.40;;;;;;6277166;28;20444;-82
2023/04/09 09:40:31;;;;;;;31.83;26.33;;;10.10;64.70;;;;;;6290952;28;20840;-80
2023/04/09 09:43:41;;;;;;;34.97;28.47;;;10.50;64.00;;;;;;6289105;28;20307;-79
2023/04/09 09:46:44;;;;;;;36.37;29.87;;;10.80;63.30;;;;;;6289167;28;20241;-81
2023/04/09 09:49:49;;;;;;;35.20;28.10;;;10.70;62.20;;;;;;6286586;28;20302;-80
2023/04/09 09:52:58;;;;;;;32.80;27.30;;;10.60;62.80;;;;;;6303511;28;20624;-80
2023/04/09 09:56:05;;;;;;;33.20;28.47;;;10.70;63.00;;;;;;6285620;28;20741;-78
2023/04/09 09:59:15;;;;;;;33.90;27.63;;;10.60;63.00;;;;;;6289050;28;20610;-79
2023/04/09 10:02:20;;;;;;;35.17;28.23;;;10.80;63.30;;;;;;6291326;28;20237;-80
2023/04/09 10:05:26;;;;;;;31.00;26.67;;;10.90;63.20;;;;;;6284229;28;20244;-81
2023/04/09 10:08:32;;;;;;;34.13;28.17;;;10.70;62.80;;;;;;6289630;28;20324;-80
2023/04/09 10:11:37;;;;;;;30.33;25.40;;;10.80;62.40;;;;;;6291721;28;20319;-79
2023/04/09 10:14:42;;;;;;;33.67;26.53;;;10.70;62.70;;;;;;6286068;28;20237;-80
2023/04/09 10:17:46;;;;;;;29.73;26.50;;;10.60;63.20;;;;;;6294691;28;20318;-80
2023/04/09 10:20:54;;;;;;;29.27;24.77;;;10.80;63.10;;;;;;6294055;28;20340;-80
2023/04/09 10:23:58;;;;;;;28.20;24.93;;;11.00;62.70;;;;;;6285933;28;20236;-76
2023/04/09 10:27:11;;;;;;;30.53;25.07;;;11.10;62.40;;;;;;6287644;28;20233;-80
2023/04/09 10:30:34;;;;;;;30.27;26.07;;;11.10;62.60;;;;;;6288095;28;20238;-80
2023/04/09 10:33:38;;;;;;;28.23;24.13;;;11.20;62.10;;;;;;6285957;28;20230;-81
2023/04/09 10:36:43;;;;;;;33.17;26.43;;;11.10;62.30;;;;;;6284033;28;20241;-79
2023/04/09 10:39:48;;;;;;;28.77;24.00;;;11.40;61.90;;;;;;6287268;28;20229;-80
2023/04/09 10:42:54;;;;;;;28.87;24.67;;;11.50;61.40;;;;;;6286295;28;20236;-79
2023/04/09 10:45:58;;;;;;;27.00;23.43;;;11.40;61.70;;;;;;6286944;28;20320;-80
2023/04/09 10:49:15;;;;;;;29.90;24.87;;;11.40;61.40;;;;;;6292652;28;20251;-79
2023/04/09 10:52:30;;;;;;;26.73;22.70;;;11.10;61.80;;;;;;6282118;28;20709;-79
2023/04/09 10:55:37;;;;;;;25.43;22.20;;;11.30;61.50;;;;;;6301402;28;20407;-81
2023/04/09 10:58:42;;;;;;;27.03;23.33;;;11.50;61.20;;;;;;6285119;28;20324;-79
2023/04/09 11:01:53;;;;;;;25.67;21.93;;;11.50;60.20;;;;;;6279735;28;20617;-80
2023/04/09 11:05:06;;;;;;;25.87;21.77;;;11.50;61.40;;;;;;6297343;28;20321;-77
2023/04/09 11:08:11;;;;;;;26.97;23.43;;;11.70;61.40;;;;;;6269121;28;20240;-80
2023/04/09 11:11:15;;;;;;;23.93;21.33;;;11.90;60.60;;;;;;6287461;28;20251;-79
2023/04/09 11:14:22;;;;;;;25.90;21.40;;;11.90;60.50;;;;;;6289025;28;20237;-81
2023/04/09 11:17:26;;;;;;;24.60;20.80;;;11.90;60.50;;;;;;6275829;28;20244;-78
2023/04/09 11:20:30;;;;;;;23.30;20.77;;;11.90;60.80;;;;;;6287062;28;20237;-79
2023/04/09 11:23:33;;;;;;;23.87;21.27;;;12.00;60.20;;;;;;6274382;28;20232;-78
2023/04/09 11:26:37;;;;;;;26.33;21.10;;;12.20;60.00;;;;;;6293045;28;20272;-81
2023/04/09 11:29:41;;;;;;;24.93;22.17;;;12.30;60.00;;;;;;6300651;28;20271;-78
2023/04/09 11:32:45;;;;;;;24.17;21.57;;;12.40;59.70;;;;;;6293072;28;20241;-79
2023/04/09 11:35:48;;;;;;;23.83;21.33;;;12.50;60.20;;;;;;6292510;28;20475;-79
2023/04/09 11:38:51;;;;;;;22.87;20.43;;;12.50;59.00;;;;;;6289520;28;20324;-79
2023/04/09 11:41:56;;;;;;;25.23;21.60;;;12.60;59.40;;;;;;6294908;28;21433;-79
2023/04/09 11:45:01;;;;;;;25.00;21.67;;;12.50;58.90;;;;;;6299692;28;20240;-80
2023/04/09 11:48:12;;;;;;;23.93;21.23;;;12.50;59.00;;;;;;6294959;28;20237;-78
2023/04/09 11:51:15;;;;;;;28.03;22.20;;;12.50;59.00;;;;;;6312889;28;20324;-79
2023/04/09 11:54:18;;;;;;;22.60;20.27;;;12.50;58.70;;;;;;6299831;28;20229;-78
2023/04/09 11:57:21;;;;;;;22.73;19.63;;;12.40;59.10;;;;;;6293104;28;20237;-80
2023/04/09 12:00:26;;;;;;;22.40;19.77;;;12.50;59.00;;;;;;6281338;28;20247;-80
2023/04/09 12:03:31;;;;;;;22.77;19.57;;;12.80;57.90;;;;;;6288899;28;20297;-80
2023/04/09 12:06:40;;;;;;;22.47;20.10;;;12.50;58.30;;;;;;6284629;28;20257;-80
2023/04/09 12:09:48;;;;;;;22.57;19.70;;;12.70;58.40;;;;;;6282060;28;20502;-81
2023/04/09 12:12:51;;;;;;;22.17;19.87;;;12.90;58.10;;;;;;6281750;28;20317;-80
2023/04/09 12:15:56;;;;;;;23.90;20.30;;;12.80;57.80;;;;;;6286211;28;20612;-80
2023/04/09 12:19:01;;;;;;;21.73;19.57;;;13.10;58.00;;;;;;6295455;28;20412;-82
2023/04/09 12:22:04;;;;;;;24.23;21.27;;;13.30;57.00;;;;;;6297380;28;20241;-76
2023/04/09 12:25:08;;;;;;;21.73;19.43;;;13.30;57.00;;;;;;6314441;28;20300;-75
2023/04/09 12:28:14;;;;;;;22.97;20.27;;;13.30;57.00;;;;;;6317733;28;20265;-77
2023/04/09 12:31:18;;;;;;;23.50;20.93;;;13.20;57.00;;;;;;6324822;28;20228;-77
2023/04/09 12:34:22;;;;;;;22.33;19.93;;;13.30;57.00;;;;;;6316773;28;20286;-77
2023/04/09 12:37:24;;;;;;;24.93;21.43;;;13.20;57.20;;;;;;6310953;28;20234;-78
2023/04/09 12:40:27;;;;;;;23.03;20.30;;;13.10;57.50;;;;;;6314766;28;20551;-78
2023/04/09 12:43:31;;;;;;;25.23;20.97;;;13.20;57.60;;;;;;6317911;28;20424;-78
2023/04/09 12:46:36;;;;;;;21.87;19.57;;;13.00;57.30;;;;;;6306246;28;20248;-79
2023/04/09 12:49:39;;;;;;;23.40;20.70;;;13.10;57.60;;;;;;6285885;28;20467;-81
2023/04/09 12:52:44;;;;;;;22.57;20.17;;;13.10;57.90;;;;;;6290721;28;20274;-80
2023/04/09 12:55:47;;;;;;;23.83;20.90;;;13.30;57.50;;;;;;6279983;28;20690;-81
2023/04/09 12:58:51;;;;;;;23.87;21.40;;;13.60;57.00;;;;;;6285539;28;20241;-79
2023/04/09 13:01:55;;;;;;;24.37;21.40;;;13.60;57.40;;;;;;6276190;28;20237;-79
2023/04/09 13:04:59;;;;;;;25.63;21.37;;;13.80;57.00;;;;;;6285752;28;20230;-80
2023/04/09 13:08:02;;;;;;;22.13;19.73;;;14.00;56.10;;;;;;6284736;28;20593;-81
2023/04/09 13:11:05;;;;;;;22.90;20.47;;;14.10;55.80;;;;;;6283708;28;20283;-80
2023/04/09 13:14:12;;;;;;;21.90;19.40;;;14.10;55.80;;;;;;6289724;28;20321;-75
2023/04/09 13:17:16;;;;;;;24.23;21.63;;;13.90;56.10;;;;;;6291240;28;20312;-80
2023/04/09 13:20:19;;;;;;;25.40;21.00;;;13.90;56.70;;;;;;6300658;28;20225;-75
2023/04/09 13:23:22;;;;;;;23.53;19.93;;;14.00;56.50;;;;;;6318092;28;20296;-78
2023/04/09 13:26:25;;;;;;;21.50;19.17;;;14.10;56.40;;;;;;6321315;28;20225;-78
2023/04/09 13:29:29;;;;;;;23.67;21.17;;;14.30;56.30;;;;;;6320630;28;20267;-79
2023/04/09 13:32:33;;;;;;;23.20;20.60;;;14.30;56.10;;;;;;6310203;28;20497;-76
2023/04/09 13:35:36;;;;;;;24.47;21.87;;;14.50;55.90;;;;;;6320154;28;20283;-80
2023/04/09 13:38:39;;;;;;;19.20;17.20;;;14.60;55.40;;;;;;6314088;28;20237;-78
2023/04/09 13:41:42;;;;;;;22.93;19.43;;;14.60;55.80;;;;;;6311224;28;20233;-81
2023/04/09 13:44:45;;;;;;;23.03;20.60;;;14.70;55.20;;;;;;6297308;28;20235;-80
2023/04/09 13:47:50;;;;;;;20.23;18.17;;;14.70;55.00;;;;;;6324449;27;20692;-80
2023/04/09 13:50:53;;;;;;;22.40;20.00;;;14.70;55.20;;;;;;6297710;28;20233;-78
2023/04/09 13:53:56;;;;;;;24.23;21.63;;;14.80;54.00;;;;;;6282878;28;20234;-80
2023/04/09 13:56:59;;;;;;;21.83;19.63;;;14.60;54.80;;;;;;6288807;28;20229;-81
2023/04/09 14:00:04;;;;;;;22.23;19.13;;;14.50;55.70;;;;;;6301599;28;20263;-81
2023/04/09 14:03:08;;;;;;;20.47;18.37;;;14.60;55.70;;;;;;6287918;28;20790;-80
2023/04/09 14:06:14;;;;;;;23.70;20.20;;;14.70;55.50;;;;;;6293000;28;20271;-81
2023/04/09 14:09:17;;;;;;;20.33;18.23;;;14.90;55.30;;;;;;6274518;28;20660;-79
2023/04/09 14:12:20;;;;;;;19.53;17.57;;;15.00;54.50;;;;;;6288578;28;20245;-78
2023/04/09 14:15:23;;;;;;;19.97;17.97;;;15.10;54.70;;;;;;6291138;28;20280;-81
2023/04/09 14:18:28;;;;;;;19.20;17.20;;;15.20;54.70;;;;;;6292085;28;20241;-79
2023/04/09 14:21:31;;;;;;;20.77;18.57;;;15.20;54.60;;;;;;6290080;28;20248;-79
2023/04/09 14:24:38;;;;;;;22.93;20.13;;;15.30;54.10;;;;;;6293375;28;20229;-79
2023/04/09 14:27:43;;;;;;;21.53;19.23;;;15.30;54.10;;;;;;6295321;28;20233;-80
2023/04/09 14:30:46;;;;;;;21.77;19.47;;;15.20;54.00;;;;;;6287324;28;20234;-81
2023/04/09 14:33:51;;;;;;;21.93;19.47;;;15.00;54.70;;;;;;6289809;28;20237;-80
2023/04/09 14:36:54;;;;;;;19.60;17.47;;;15.10;54.40;;;;;;6296040;28;20229;-80
2023/04/09 14:39:57;;;;;;;19.20;17.30;;;15.20;54.70;;;;;;6294269;28;20237;-80
2023/04/09 14:43:00;;;;;;;21.30;19.00;;;15.30;54.60;;;;;;6285961;28;20228;-81
2023/04/09 14:46:05;;;;;;;19.47;17.57;;;15.40;54.50;;;;;;6285983;28;20363;-77
2023/04/09 14:49:09;;;;;;;21.33;18.73;;;15.40;54.70;;;;;;6286207;28;20605;-81
2023/04/09 14:52:13;;;;;;;19.73;17.73;;;15.50;54.50;;;;;;6277265;28;20767;-82
2023/04/09 14:55:16;;;;;;;21.17;19.03;;;15.60;54.20;;;;;;6284168;28;20316;-79
2023/04/09 14:58:19;;;;;;;21.20;18.87;;;15.60;53.80;;;;;;6283725;28;20884;-79
2023/04/09 15:01:22;;;;;;;20.53;18.43;;;15.70;53.50;;;;;;6285939;28;20237;-81
2023/04/09 15:04:27;;;;;;;18.40;16.63;;;15.70;53.40;;;;;;6287835;28;20244;-79
2023/04/09 15:07:30;;;;;;;20.03;17.93;;;15.60;53.70;;;;;;6282894;28;20233;-80
2023/04/09 15:10:35;;;;;;;20.10;18.03;;;15.60;54.00;;;;;;6285875;28;20491;-78
2023/04/09 15:13:38;;;;;;;20.70;18.70;;;15.50;54.50;;;;;;6289405;28;20394;-80
2023/04/09 15:16:41;;;;;;;21.57;18.87;;;15.60;54.40;;;;;;6287770;28;20239;-79
2023/04/09 15:19:46;;;;;;;19.63;17.63;;;15.60;54.10;;;;;;6286055;28;20310;-81
2023/04/09 15:22:50;;;;;;;23.23;18.97;;;15.40;54.30;;;;;;6283790;28;20233;-81
2023/04/09 15:25:53;;;;;;;21.30;19.00;;;15.30;54.40;;;;;;6286954;28;20236;-80
2023/04/09 15:29:02;;;;;;;21.80;18.33;;;15.10;54.80;;;;;;6286432;28;20741;-81
2023/04/09 15:32:05;;;;;;;21.13;18.80;;;15.20;54.80;;;;;;6287213;28;20286;-78
2023/04/09 15:35:12;;;;;;;21.40;19.20;;;15.30;54.60;;;;;;6285575;27;20297;-80
2023/04/09 15:38:20;;;;;;;22.13;19.30;;;15.40;54.70;;;;;;6295209;28;20320;-80
2023/04/09 15:41:23;;;;;;;18.67;16.77;;;15.30;54.80;;;;;;6290050;28;20265;-78
2023/04/09 15:44:29;;;;;;;22.23;19.83;;;15.00;55.30;;;;;;6281465;28;20375;-78